x

Edisto - 41 Nm Southeast Of Charleston, Sc (41004) Wave Buoy

2:50am - Fri 29th Jul 2016 All times are EDT. -4 hours from GMT.

  • Sig Wave height 4.6ft
  • Swell Direction
  • Peak Period 5s
  • Average Period 4s
  • Wind
    22mph, 27mph gusts
  • Sea Temp 86°f
  • Air Temp 86°f
  • Sea Pressure 1013.3mb
  • Edisto - 41 Nm Southeast Of Charleston, Sc
  • Edisto - 41 Nm Southeast Of Charleston, Sc

More Historic Weather Station data

Upgrade to MSW Pro to gain access to the past 30 days of data for over 8000 Wavebouys and Weather Stations around the globe.

Join Pro

Comparision Forecast

View Surf forecast
   
Fri 07/29 2:50am 4.5ft 5s 4s 22 27 mph 1013.3mb 86f 86f
1:50am 4ft 5s 4s 25 27 mph 1013.7mb 86f 86f
12:50am 3.5ft 5s 4s 20 25 mph 1014mb 86f 86f
Thu 07/28 11:50pm 3.5ft 5s 4s 20 25 mph 1014.2mb 86f 86f
10:50pm 3.5ft 4s 4s 20 22 mph 1014.2mb 86f 87f
9:50pm 3.5ft 4s 4s 20 25 mph 1013.9mb 86f 86f
8:50pm 3.5ft 4s 4s 20 22 mph 1013.5mb 86f 86f
7:50pm 3ft 4s 4s 20 25 mph 1013.3mb 86f 86f
5:50pm 2.5ft 5s 4s 18 20 mph 1013.6mb 86f 87f
4:50pm 2.5ft 5s 4s 18 20 mph 1013.9mb 87f 86f
3:50pm 2.5ft 6s 5s 13 16 mph 1014.5mb 87f 86f
2:50pm 3ft 6s 5s 11
mph
1014.9mb 87f 86f
1:50pm 3.5ft 5s 5s 9 11 mph 1015.6mb 87f 86f
12:50pm 3.5ft 6s 5s 9 11 mph 1016mb 86f 85f
11:50am 3.5ft 6s 5s 11 13 mph 1016.1mb 86f 85f
10:50am 3.5ft 6s 5s 13
mph
1016.2mb 86f 85f
9:50am 4ft 6s 5s 13 16 mph 1016mb 86f 86f
8:50am 4.5ft 5s 5s 16 18 mph 1016mb 86f 86f
7:50am 4ft 6s 4s 18 22 mph 1015.5mb 86f 86f
6:50am 4ft 5s 4s 18 22 mph 1015mb 86f 86f
5:50am 4.5ft 5s 4s 22 25 mph 1014.7mb 86f 85f
4:50am 4.5ft 5s 4s 25 29 mph 1014.4mb 86f 85f
3:50am 4ft 5s 4s 25 27 mph 1014.3mb 86f 86f
2:50am 3.5ft 5s 4s 20 25 mph 1014.6mb 86f 86f
1:50am 3.5ft 4s 4s 20 22 mph 1015mb 86f 86f
12:50am 3ft 5s 4s 18 20 mph 1015.4mb 86f 86f
Wed 07/27 11:50pm 3.5ft 4s 4s 16 20 mph 1015.4mb 86f 86f
10:50pm 3.5ft 4s 4s 18 20 mph 1015.2mb 86f 86f
9:50pm 3ft 4s 4s 18 20 mph 1014.5mb 86f 86f
8:50pm 2.5ft 4s 4s 18 20 mph 1014.2mb 86f 86f
7:50pm 3ft 4s 4s 16 18 mph 1014.5mb 86f 86f
6:50pm 2.5ft 5s 4s 18 20 mph 1014.6mb 87f 86f
5:50pm 2.5ft 5s 4s 18 20 mph 1014.8mb 86f 85f
4:50pm 2.5ft 5s 4s 16 18 mph 1015mb 87f 85f
3:50pm 2.5ft 5s 4s 16 18 mph 1015.8mb 87f 85f
2:50pm 2.5ft 5s 4s 13 18 mph 1016.3mb 86f 85f
1:50pm 2.5ft 6s 4s 11 13 mph 1016.9mb 86f 84f
12:50pm 3ft 5s 4s 13 16 mph 1017.4mb 86f 84f
11:50am 3ft 5s 4s 13 16 mph 1017.5mb 86f 84f
10:50am 3.5ft 6s 4s 11 13 mph 1017.1mb 86f 84f
9:50am 3.5ft 5s 4s 13 16 mph 1017.1mb 86f 85f
8:50am 3.5ft 5s 4s 18 20 mph 1016.9mb 86f 85f
7:50am 3.5ft 5s 4s 16 18 mph 1016.6mb 86f 85f
6:50am 3.5ft 5s 4s 16 20 mph 1016.4mb 86f 85f
5:50am 4ft 5s 4s 18 20 mph 1016.1mb 86f 85f
4:50am 4ft 5s 4s 20 22 mph 1016mb 86f 85f
3:50am 3.5ft 5s 4s 20 22 mph 1015.9mb 86f 85f
2:50am 3.5ft 5s 4s 20 25 mph 1016.1mb 86f 85f
1:50am 3.5ft 4s 4s 20 25 mph 1016.1mb 86f 85f
12:50am 3.5ft 4s 4s 18 22 mph 1016.3mb 86f 85f
Tue 07/26 11:50pm 3ft 4s 4s 18 22 mph 1016.4mb 86f 85f
10:50pm 3ft 4s 4s 18 20 mph 1016.6mb 86f 85f
9:50pm 3ft 4s 4s 18 20 mph 1015.9mb 86f 85f
8:50pm 3ft 4s 4s 18 20 mph 1015.5mb 86f 85f
7:50pm 2.5ft 4s 4s 18 20 mph 1015.2mb 86f 85f
6:50pm 2.5ft 4s 4s 18 20 mph 1015.2mb 86f 86f
5:50pm 2.5ft 3s 4s 18 20 mph 1015.6mb 86f 85f
4:50pm 2.5ft 4s 4s 16 18 mph 1016mb 86f 85f
3:50pm 2ft 8s 4s 13 18 mph 1016.4mb 86f 85f
2:50pm 2ft 4s 4s 13 16 mph 1016.8mb 86f 85f
1:50pm 2ft 4s 4s 13
mph
1017.2mb 86f 85f
12:50pm 2ft 4s 4s 11 13 mph 1017.6mb 86f 85f
11:50am 2.5ft 4s 4s 11 13 mph 1018.1mb 86f 85f
10:50am 2.5ft 4s 4s 13 18 mph 1018.1mb 86f 85f
9:50am 2.5ft 4s 4s 13
mph
1017.8mb 86f 85f
8:50am 2.5ft 4s 4s 11 13 mph 1017.5mb 85f 85f
7:50am 2.5ft 4s 4s 13 16 mph 1017.6mb 85f 85f
6:50am 2.5ft 4s 4s 13 16 mph 1017.4mb 86f 85f
5:50am 2.5ft 4s 4s 13 16 mph 1017mb 86f 84f
4:50am 2.5ft 4s 4s 16 18 mph 1016.4mb 86f 84f
3:50am 2ft 4s 4s 16 20 mph 1016.5mb 86f 84f
2:50am 2.5ft 4s 4s 13 18 mph 1016.9mb 86f 85f
1:50am 2.5ft 9s 4s 16 18 mph 1017.5mb 86f 84f
12:50am 2ft 8s 4s 16 18 mph 1017.6mb 86f 85f
Mon 07/25 11:50pm 2ft 8s 4s 13 16 mph 1017.7mb 86f 85f
10:50pm 2.5ft 8s 4s 13 16 mph 1017.8mb 86f 85f
9:50pm 2.5ft 4s 4s 13 18 mph 1017.4mb 86f 85f
8:50pm 2.5ft 8s 4s 13 16 mph 1016.8mb 86f 85f
7:50pm 2ft 8s 4s 13 16 mph 1016.6mb 86f 85f
6:50pm 2ft 8s 4s 13 16 mph 1016.4mb 87f 85f
5:50pm 2ft 8s 4s 11 16 mph 1016.6mb 87f 85f
4:50pm 1.6ft 9s 5s 11 13 mph 1016.9mb 87f 85f
3:50pm 1.6ft 8s 5s 9 11 mph 1017.4mb 87f 85f
2:50pm 1.6ft 4s 4s 7 9 mph 1017.7mb 87f 85f
1:50pm 2ft 9s 5s 7 9 mph 1018.4mb 87f 85f
12:50pm 2ft 8s 4s 7 9 mph 1018.7mb 86f 85f
11:50am 2ft 9s 4s 7 9 mph 1018.8mb 86f 85f
10:50am 2ft 8s 4s 7 9 mph 1018.9mb 86f 85f
9:50am 2ft 8s 4s 7 9 mph 1019mb 86f 85f
8:50am 2ft 9s 4s 7 9 mph 1018.8mb 86f 85f